Time;durP1;ratioP1;P1;durP2;ratioP2;P2;SDS_P1;SDS_P2;PMS_P1;PMS_P2;Temp;Humidity;BMP_temperature;BMP_pressure;BME280_temperature;BME280_humidity;BME280_pressure;Samples;Min_cycle;Max_cycle;Signal;HPM_P1;HPM_P2
2023/05/08 00:00:11;;;;;;;41.80;27.13;;;15.40;99.90;;;;;;4913181;29;20244;-76
2023/05/08 00:02:40;;;;;;;48.77;28.13;;;15.30;99.90;;;;;;4912672;29;20380;-75
2023/05/08 00:05:07;;;;;;;45.07;28.17;;;15.30;99.90;;;;;;4912548;29;20214;-75
2023/05/08 00:07:36;;;;;;;42.90;27.17;;;15.20;99.90;;;;;;4908237;29;20234;-76
2023/05/08 00:10:04;;;;;;;47.23;27.63;;;15.20;99.90;;;;;;4913257;29;20214;-76
2023/05/08 00:12:31;;;;;;;47.57;29.97;;;15.10;99.90;;;;;;4914730;29;20213;-76
2023/05/08 00:14:58;;;;;;;46.93;28.37;;;15.10;99.90;;;;;;4912748;29;20564;-76
2023/05/08 00:17:25;;;;;;;44.33;26.70;;;15.00;99.90;;;;;;4912942;29;20273;-76
2023/05/08 00:19:52;;;;;;;44.80;28.43;;;15.00;99.90;;;;;;4909499;29;20233;-76
2023/05/08 00:22:19;;;;;;;47.83;29.07;;;15.00;99.90;;;;;;4912994;29;20214;-76
2023/05/08 00:24:45;;;;;;;47.47;29.57;;;15.00;99.90;;;;;;4913721;29;20213;-77
2023/05/08 00:27:12;;;;;;;44.37;28.20;;;14.90;99.90;;;;;;4911307;29;20217;-76
2023/05/08 00:29:39;;;;;;;47.47;29.60;;;14.90;99.90;;;;;;4913045;29;20277;-76
2023/05/08 00:32:08;;;;;;;47.23;30.33;;;14.90;99.90;;;;;;4916719;29;20269;-76
2023/05/08 00:34:35;;;;;;;50.37;29.93;;;14.90;99.90;;;;;;4915967;29;20675;-74
2023/05/08 00:37:02;;;;;;;46.07;27.17;;;14.80;99.90;;;;;;4912792;29;20618;-75
2023/05/08 00:39:29;;;;;;;53.50;30.63;;;14.80;99.90;;;;;;4914987;29;20309;-76
2023/05/08 00:41:56;;;;;;;48.37;30.33;;;14.80;99.90;;;;;;4913986;29;20285;-76
2023/05/08 00:44:23;;;;;;;50.67;29.77;;;14.80;99.90;;;;;;4919620;29;20308;-76
2023/05/08 00:46:49;;;;;;;45.27;28.97;;;14.80;99.90;;;;;;4920526;29;20296;-76
2023/05/08 00:49:17;;;;;;;50.57;30.57;;;14.70;99.90;;;;;;4917397;29;20253;-76
2023/05/08 00:51:46;;;;;;;51.43;30.63;;;14.70;99.90;;;;;;4914589;29;20210;-76
2023/05/08 00:54:18;;;;;;;50.87;30.00;;;14.60;99.90;;;;;;4900312;29;20249;-75
2023/05/08 00:56:49;;;;;;;47.53;29.87;;;14.50;99.90;;;;;;4915575;29;20206;-76
2023/05/08 00:59:19;;;;;;;51.00;30.23;;;14.40;99.90;;;;;;4912804;29;20432;-76
2023/05/08 01:01:47;;;;;;;48.93;30.27;;;14.30;99.90;;;;;;4916384;29;20258;-76
2023/05/08 01:04:14;;;;;;;47.30;29.70;;;14.30;99.90;;;;;;4915397;29;20236;-77
2023/05/08 01:06:41;;;;;;;48.73;29.73;;;14.30;99.90;;;;;;4915337;29;20414;-75
2023/05/08 01:09:08;;;;;;;53.67;31.57;;;14.20;99.90;;;;;;4915734;29;20634;-75
2023/05/08 01:11:45;;;;;;;50.03;30.13;;;14.20;99.90;;;;;;4915782;29;20761;-75
2023/05/08 01:14:16;;;;;;;57.73;33.43;;;14.20;99.90;;;;;;4912043;29;20217;-74
2023/05/08 01:16:55;;;;;;;54.83;31.43;;;14.10;99.90;;;;;;4917896;29;20238;-75
2023/05/08 01:19:33;;;;;;;56.87;32.17;;;14.10;99.90;;;;;;4915691;29;20237;-76
2023/05/08 01:22:24;;;;;;;64.53;33.43;;;14.00;99.90;;;;;;4915543;29;20293;-75
2023/05/08 01:25:26;;;;;;;59.40;33.27;;;14.00;99.90;;;;;;4915230;29;20765;-75
2023/05/08 01:28:29;;;;;;;54.00;31.97;;;14.00;99.90;;;;;;4880196;29;20216;-75
2023/05/08 01:31:31;;;;;;;52.60;31.60;;;13.90;99.90;;;;;;4917289;29;20224;-76
2023/05/08 01:34:05;;;;;;;58.73;33.33;;;13.80;99.90;;;;;;4911373;29;20300;-75
2023/05/08 01:36:52;;;;;;;58.87;33.77;;;13.80;99.90;;;;;;4914470;29;20206;-76
2023/05/08 01:39:21;;;;;;;52.13;31.70;;;13.80;99.90;;;;;;4915473;29;20313;-75
2023/05/08 01:42:03;;;;;;;64.00;33.23;;;13.80;99.90;;;;;;4890913;29;20656;-76
2023/05/08 01:44:37;;;;;;;59.10;33.37;;;13.70;99.90;;;;;;4915555;29;20293;-76
2023/05/08 01:47:07;;;;;;;66.53;33.00;;;13.80;99.90;;;;;;4914553;29;20219;-77
2023/05/08 01:49:37;;;;;;;60.83;33.47;;;13.70;99.90;;;;;;4914998;29;20297;-75
2023/05/08 01:52:09;;;;;;;51.90;32.27;;;13.60;99.90;;;;;;4910942;29;20306;-76
2023/05/08 01:54:43;;;;;;;62.60;34.23;;;13.60;99.90;;;;;;4910274;29;20206;-76
2023/05/08 01:57:12;;;;;;;61.80;35.27;;;13.60;99.90;;;;;;4911523;29;20292;-76
2023/05/08 01:59:41;;;;;;;46.10;28.37;;;13.50;99.90;;;;;;4915007;29;20273;-76
2023/05/08 02:02:10;;;;;;;57.93;33.80;;;13.50;99.90;;;;;;4914182;29;20206;-76
2023/05/08 02:04:38;;;;;;;59.10;33.93;;;13.50;99.90;;;;;;4914395;29;20206;-76
2023/05/08 02:07:06;;;;;;;60.87;34.23;;;13.50;99.90;;;;;;4911023;29;20206;-76
2023/05/08 02:09:34;;;;;;;64.57;36.20;;;13.40;99.90;;;;;;4915337;29;20253;-75
2023/05/08 02:12:02;;;;;;;60.67;35.73;;;13.40;99.90;;;;;;4914803;29;20216;-76
2023/05/08 02:14:30;;;;;;;59.03;33.37;;;13.40;99.90;;;;;;4915373;29;20217;-76
2023/05/08 02:17:00;;;;;;;57.53;31.70;;;13.40;99.90;;;;;;4915051;29;20265;-76
2023/05/08 02:19:29;;;;;;;60.67;34.37;;;13.30;99.90;;;;;;4909872;29;20763;-76
2023/05/08 02:21:57;;;;;;;59.67;33.83;;;13.30;99.90;;;;;;4914236;29;20730;-75
2023/05/08 02:24:25;;;;;;;64.10;35.17;;;13.30;99.90;;;;;;4914615;29;20205;-75
2023/05/08 02:26:53;;;;;;;61.73;34.00;;;13.30;99.90;;;;;;4914427;29;20218;-75
2023/05/08 02:29:22;;;;;;;67.33;35.20;;;13.30;99.90;;;;;;4913712;29;20674;-75
2023/05/08 02:31:49;;;;;;;65.20;35.17;;;13.20;99.90;;;;;;4916634;29;20224;-76
2023/05/08 02:34:17;;;;;;;61.87;34.07;;;13.20;99.90;;;;;;4910874;29;20209;-76
2023/05/08 02:36:44;;;;;;;66.90;35.50;;;13.20;99.90;;;;;;4913043;29;20258;-76
2023/05/08 02:39:13;;;;;;;65.63;35.93;;;13.20;99.90;;;;;;4911811;29;20318;-75
2023/05/08 02:41:41;;;;;;;70.47;36.70;;;13.20;99.90;;;;;;4912241;29;20674;-76
2023/05/08 02:44:08;;;;;;;70.17;36.40;;;13.20;99.90;;;;;;4913988;29;20222;-75
2023/05/08 02:46:46;;;;;;;62.30;34.27;;;13.20;99.90;;;;;;4914737;29;20205;-76
2023/05/08 02:49:19;;;;;;;71.17;38.73;;;13.20;99.90;;;;;;4913503;29;20458;-75
2023/05/08 02:52:20;;;;;;;72.63;39.93;;;13.30;99.90;;;;;;4913730;29;20658;-76
2023/05/08 02:55:19;;;;;;;68.03;37.03;;;13.30;99.90;;;;;;4896370;29;20209;-76
2023/05/08 02:58:02;;;;;;;67.80;36.93;;;13.30;99.90;;;;;;4886764;29;20212;-75
2023/05/08 03:00:41;;;;;;;71.00;38.93;;;13.30;99.90;;;;;;4909127;29;20237;-76
2023/05/08 03:03:22;;;;;;;70.97;36.97;;;13.30;99.90;;;;;;4913991;29;20210;-75
2023/05/08 03:05:55;;;;;;;72.40;39.53;;;13.40;99.90;;;;;;4910193;29;20213;-76
2023/05/08 03:08:28;;;;;;;73.90;39.97;;;13.40;99.90;;;;;;4913726;29;20314;-76
2023/05/08 03:11:00;;;;;;;70.93;38.93;;;13.30;99.90;;;;;;4913216;29;20676;-75
2023/05/08 03:13:30;;;;;;;63.27;36.70;;;13.40;99.90;;;;;;4913542;29;20285;-76
2023/05/08 03:16:00;;;;;;;71.00;40.30;;;13.30;99.90;;;;;;4914511;29;20311;-75
2023/05/08 03:18:35;;;;;;;61.13;36.77;;;13.40;99.90;;;;;;4913725;29;20234;-76
2023/05/08 03:21:03;;;;;;;70.07;36.93;;;13.30;99.90;;;;;;4913219;29;20257;-75
2023/05/08 03:23:34;;;;;;;67.27;37.97;;;13.30;99.90;;;;;;4913475;29;20249;-76
2023/05/08 03:26:01;;;;;;;66.90;37.57;;;13.40;99.90;;;;;;4896072;29;20526;-76
2023/05/08 03:28:30;;;;;;;63.57;36.60;;;13.40;99.90;;;;;;4913072;29;20218;-75
2023/05/08 03:30:58;;;;;;;61.20;35.70;;;13.40;99.90;;;;;;4919099;29;20571;-77
2023/05/08 03:33:27;;;;;;;60.97;35.27;;;13.40;99.90;;;;;;4913173;29;20225;-75
2023/05/08 03:35:55;;;;;;;70.87;37.40;;;13.40;99.90;;;;;;4913559;29;20289;-75
2023/05/08 03:38:22;;;;;;;61.07;35.40;;;13.40;99.90;;;;;;4913171;29;20212;-75
2023/05/08 03:40:49;;;;;;;65.33;38.33;;;13.40;99.90;;;;;;4914936;29;20317;-76
2023/05/08 03:43:17;;;;;;;68.60;38.37;;;13.40;99.90;;;;;;4914586;29;20237;-75
2023/05/08 03:45:45;;;;;;;61.60;36.37;;;13.40;99.90;;;;;;4913302;29;20226;-75
2023/05/08 03:48:13;;;;;;;63.37;37.17;;;13.40;99.90;;;;;;4913227;29;20237;-76
2023/05/08 03:50:41;;;;;;;59.07;35.90;;;13.40;99.90;;;;;;4916144;29;20897;-75
2023/05/08 03:53:08;;;;;;;62.63;36.90;;;13.40;99.90;;;;;;4911220;29;20228;-75
2023/05/08 03:55:35;;;;;;;63.20;36.47;;;13.40;99.90;;;;;;4915733;29;20317;-76
2023/05/08 03:58:25;;;;;;;57.67;35.07;;;13.50;99.90;;;;;;4906838;29;20210;-76
2023/05/08 04:01:21;;;;;;;57.13;36.00;;;13.50;99.90;;;;;;4925043;29;20233;-78
2023/05/08 04:04:06;;;;;;;59.10;35.93;;;13.50;99.90;;;;;;4916559;29;20297;-76
2023/05/08 04:06:44;;;;;;;58.30;35.63;;;13.50;99.90;;;;;;4915250;29;20280;-76
2023/05/08 04:09:30;;;;;;;60.33;35.83;;;13.50;99.90;;;;;;4915359;29;20225;-76
2023/05/08 04:12:04;;;;;;;55.00;33.73;;;13.40;99.90;;;;;;4916671;29;20284;-76
2023/05/08 04:14:41;;;;;;;58.93;33.57;;;13.40;99.90;;;;;;4917272;29;20701;-76
2023/05/08 04:17:10;;;;;;;57.63;34.43;;;13.30;99.90;;;;;;4913308;29;20198;-76
2023/05/08 04:19:42;;;;;;;58.10;36.10;;;13.20;99.90;;;;;;4915657;29;20229;-76
2023/05/08 04:22:10;;;;;;;57.03;34.20;;;13.20;99.90;;;;;;4912255;29;20213;-75
2023/05/08 04:24:43;;;;;;;57.13;35.73;;;13.10;99.90;;;;;;4916007;29;20214;-76
2023/05/08 04:27:11;;;;;;;55.97;33.77;;;13.10;99.90;;;;;;4916158;29;20353;-76
2023/05/08 04:29:38;;;;;;;58.40;35.17;;;13.10;99.90;;;;;;4916713;29;20296;-75
2023/05/08 04:32:07;;;;;;;59.07;36.03;;;13.10;99.90;;;;;;4904134;29;20801;-76
2023/05/08 04:34:35;;;;;;;55.07;34.37;;;13.10;99.90;;;;;;4915809;29;20261;-77
2023/05/08 04:37:02;;;;;;;57.40;33.50;;;13.10;99.90;;;;;;4914709;29;20203;-77
2023/05/08 04:39:29;;;;;;;58.70;36.00;;;13.00;99.90;;;;;;4912455;29;20212;-77
2023/05/08 04:42:01;;;;;;;58.87;34.83;;;13.00;99.90;;;;;;4920767;29;20214;-76
2023/05/08 04:44:28;;;;;;;55.30;35.27;;;13.00;99.90;;;;;;4915576;29;20288;-78
2023/05/08 04:46:55;;;;;;;58.13;35.20;;;13.10;99.90;;;;;;4915226;29;20225;-78
2023/05/08 04:49:21;;;;;;;61.80;36.47;;;13.10;99.90;;;;;;4916976;29;20281;-75
2023/05/08 04:51:48;;;;;;;56.43;34.40;;;13.00;99.90;;;;;;4918259;29;20212;-76
2023/05/08 04:54:15;;;;;;;61.63;36.77;;;13.10;99.90;;;;;;4920943;29;20241;-76
2023/05/08 04:56:42;;;;;;;56.73;34.17;;;13.20;99.90;;;;;;4916883;29;20241;-76
2023/05/08 04:59:08;;;;;;;56.63;35.30;;;13.30;99.90;;;;;;4921918;29;20230;-76
2023/05/08 05:01:35;;;;;;;61.57;37.27;;;13.30;99.90;;;;;;4917767;29;20233;-76
2023/05/08 05:04:02;;;;;;;59.10;35.53;;;13.40;99.90;;;;;;4898725;29;20209;-77
2023/05/08 05:06:30;;;;;;;59.63;36.10;;;13.40;99.90;;;;;;4916127;29;20683;-76
2023/05/08 05:08:59;;;;;;;59.03;35.53;;;13.40;99.90;;;;;;4911937;29;20206;-76
2023/05/08 05:11:26;;;;;;;54.20;34.00;;;13.40;99.90;;;;;;4916592;29;20250;-77
2023/05/08 05:13:53;;;;;;;55.60;34.97;;;13.50;99.90;;;;;;4914906;29;20638;-77
2023/05/08 05:16:20;;;;;;;51.83;33.67;;;13.60;99.90;;;;;;4915855;29;20300;-77
2023/05/08 05:18:47;;;;;;;56.57;33.73;;;13.70;99.90;;;;;;4913457;29;20809;-76
2023/05/08 05:21:13;;;;;;;51.13;33.00;;;13.80;99.90;;;;;;4916072;29;20589;-76
2023/05/08 05:23:41;;;;;;;45.57;31.70;;;13.70;99.90;;;;;;4911576;29;20209;-77
2023/05/08 05:26:07;;;;;;;51.53;32.73;;;13.80;99.90;;;;;;4915287;29;20217;-76
2023/05/08 05:28:36;;;;;;;47.70;31.53;;;13.90;99.90;;;;;;4906815;29;20675;-76
2023/05/08 05:31:03;;;;;;;50.40;33.37;;;14.00;99.90;;;;;;4915050;29;20320;-75
2023/05/08 05:33:30;;;;;;;49.90;32.60;;;14.00;99.90;;;;;;4915247;29;20481;-78
2023/05/08 05:35:57;;;;;;;46.13;32.03;;;14.10;99.90;;;;;;4915478;29;20599;-77
2023/05/08 05:38:24;;;;;;;40.37;28.27;;;14.20;99.90;;;;;;4911529;29;20292;-76
2023/05/08 05:40:51;;;;;;;42.30;29.93;;;14.30;99.90;;;;;;4910644;29;20334;-77
2023/05/08 05:43:18;;;;;;;41.93;28.80;;;14.40;99.90;;;;;;4914227;29;20298;-77
2023/05/08 05:45:44;;;;;;;42.70;30.27;;;14.50;99.90;;;;;;4913194;29;20312;-78
2023/05/08 05:48:11;;;;;;;40.17;29.10;;;14.60;99.90;;;;;;4914969;29;20260;-75
2023/05/08 05:50:38;;;;;;;36.30;25.97;;;14.90;99.90;;;;;;4916077;29;20216;-78
2023/05/08 05:53:04;;;;;;;36.38;25.65;;;15.20;99.90;;;;;;4914185;29;20201;-76
2023/05/08 05:55:31;;;;;;;29.92;22.85;;;15.70;99.90;;;;;;4912483;29;20687;-76
2023/05/08 05:57:58;;;;;;;30.23;23.15;;;16.30;99.90;;;;;;4916031;29;20202;-77
2023/05/08 06:00:25;;;;;;;24.60;20.90;;;16.90;99.90;;;;;;4908157;29;20251;-75
2023/05/08 06:02:52;;;;;;;26.92;21.08;;;17.60;99.90;;;;;;4911128;29;20220;-77
2023/05/08 06:05:19;;;;;;;22.77;19.77;;;;;;;;;;4913420;29;20206;-77
2023/05/08 06:07:46;;;;;;;25.42;19.92;;;18.60;99.90;;;;;;4914721;29;20687;-76
2023/05/08 06:10:13;;;;;;;23.25;20.20;;;18.90;99.90;;;;;;4915104;29;20217;-76
2023/05/08 06:12:40;;;;;;;20.88;18.65;;;19.40;99.90;;;;;;4915916;29;20217;-76
2023/05/08 06:15:08;;;;;;;21.42;19.13;;;19.90;99.90;;;;;;4912483;29;20222;-77
2023/05/08 06:17:35;;;;;;;21.70;19.10;;;20.10;99.90;;;;;;4914699;29;20249;-76
2023/05/08 06:20:02;;;;;;;20.15;18.00;;;20.40;99.90;;;;;;4915857;29;20217;-77
2023/05/08 06:22:29;;;;;;;19.75;17.65;;;20.60;99.90;;;;;;4916764;29;20254;-79
2023/05/08 06:24:56;;;;;;;21.98;19.42;;;20.80;99.90;;;;;;4914470;29;20297;-78
2023/05/08 06:27:23;;;;;;;20.88;18.65;;;20.90;99.90;;;;;;4914559;29;20245;-76
2023/05/08 06:29:51;;;;;;;20.75;18.52;;;21.00;99.90;;;;;;4914462;29;20374;-76
2023/05/08 06:32:19;;;;;;;23.05;19.90;;;21.30;99.90;;;;;;4916367;29;20206;-76
2023/05/08 06:34:46;;;;;;;21.23;19.02;;;21.50;99.90;;;;;;4914425;29;20214;-76
2023/05/08 06:37:13;;;;;;;20.30;18.30;;;21.80;99.90;;;;;;4914022;29;20220;-75
2023/05/08 06:39:40;;;;;;;20.42;18.20;;;22.20;99.90;;;;;;4913941;29;20236;-76
2023/05/08 06:42:07;;;;;;;20.45;18.27;;;22.60;99.90;;;;;;4904827;29;20240;-76
2023/05/08 06:44:34;;;;;;;30.05;18.92;;;22.90;99.90;;;;;;4914122;29;20649;-75
2023/05/08 06:47:01;;;;;;;20.92;18.90;;;23.20;99.90;;;;;;4914753;29;20301;-76
2023/05/08 06:49:28;;;;;;;21.00;18.83;;;23.30;99.90;;;;;;4907914;29;20318;-77
2023/05/08 06:51:55;;;;;;;22.05;18.50;;;23.30;99.90;;;;;;4917260;29;20237;-77
2023/05/08 06:54:23;;;;;;;22.85;20.45;;;23.10;99.90;;;;;;4911735;29;20206;-77
2023/05/08 06:56:52;;;;;;;20.95;18.83;;;22.80;99.90;;;;;;4903256;29;20198;-76
2023/05/08 06:59:20;;;;;;;21.95;19.65;;;22.50;99.90;;;;;;4907342;29;20402;-77
2023/05/08 07:01:47;;;;;;;20.95;18.85;;;22.40;99.90;;;;;;4912747;29;20322;-77
2023/05/08 07:04:13;;;;;;;21.17;18.65;;;22.60;99.90;;;;;;4913421;29;20200;-76
2023/05/08 07:06:40;;;;;;;21.88;19.60;;;23.00;99.90;;;;;;4902558;29;20237;-76
2023/05/08 07:09:08;;;;;;;26.33;20.75;;;23.40;99.90;;;;;;4914472;29;21010;-78
2023/05/08 07:11:35;;;;;;;22.50;20.30;;;23.70;99.90;;;;;;4917861;29;20301;-76
2023/05/08 07:14:01;;;;;;;22.80;19.08;;;24.10;99.90;;;;;;4912961;29;20420;-78
2023/05/08 07:16:28;;;;;;;21.50;18.92;;;24.40;99.90;;;;;;4909339;29;20304;-77
2023/05/08 07:18:55;;;;;;;21.85;19.73;;;24.70;99.90;;;;;;4912870;29;20228;-78
2023/05/08 07:21:22;;;;;;;21.63;19.42;;;24.90;99.90;;;;;;4909661;29;20233;-77
2023/05/08 07:23:50;;;;;;;20.90;18.63;;;25.30;99.90;;;;;;4909645;29;20197;-77
2023/05/08 07:26:17;;;;;;;21.13;19.02;;;25.50;99.90;;;;;;4912949;29;20218;-78
2023/05/08 07:28:44;;;;;;;34.60;19.27;;;25.60;99.90;;;;;;4913880;29;20658;-76
2023/05/08 07:31:10;;;;;;;22.38;19.98;;;25.40;99.90;;;;;;4912656;29;20229;-77
2023/05/08 07:33:37;;;;;;;23.27;20.92;;;25.10;99.90;;;;;;4913923;29;20232;-79
2023/05/08 07:36:04;;;;;;;35.67;19.67;;;24.80;99.90;;;;;;4920535;29;20201;-78
2023/05/08 07:38:31;;;;;;;23.08;20.30;;;24.50;99.90;;;;;;4914206;29;20216;-78
2023/05/08 07:41:00;;;;;;;118.65;37.38;;;24.10;99.90;;;;;;4920388;29;20240;-78
2023/05/08 07:43:27;;;;;;;25.48;22.05;;;23.70;99.90;;;;;;4913661;29;20698;-76
2023/05/08 07:45:54;;;;;;;24.30;21.00;;;23.40;99.90;;;;;;4920701;29;20237;-76
2023/05/08 07:48:20;;;;;;;54.00;21.52;;;23.40;99.90;;;;;;4916857;29;20373;-76
2023/05/08 07:50:50;;;;;;;28.70;19.67;;;23.80;99.90;;;;;;4917186;29;20234;-78
2023/05/08 07:53:17;;;;;;;24.90;19.98;;;24.20;99.90;;;;;;4920619;29;20232;-76
2023/05/08 07:55:44;;;;;;;21.75;19.40;;;24.70;99.90;;;;;;4915452;29;20210;-77
2023/05/08 07:58:10;;;;;;;22.45;20.20;;;25.30;99.90;;;;;;4917538;29;20297;-77
2023/05/08 08:00:38;;;;;;;24.20;20.98;;;25.70;99.90;;;;;;4916844;29;20308;-77
2023/05/08 08:03:05;;;;;;;24.20;21.70;;;26.00;99.90;;;;;;4916910;29;20229;-75
2023/05/08 08:05:32;;;;;;;46.40;20.70;;;26.00;99.90;;;;;;4912658;29;20300;-77
2023/05/08 08:07:59;;;;;;;47.05;21.58;;;25.80;99.90;;;;;;4916268;29;20642;-77
2023/05/08 08:10:26;;;;;;;27.38;22.25;;;25.80;99.90;;;;;;4918354;29;20285;-77
2023/05/08 08:12:53;;;;;;;27.15;23.25;;;25.40;99.90;;;;;;4913969;29;21466;-77
2023/05/08 08:15:20;;;;;;;34.58;23.63;;;24.90;99.90;;;;;;4921436;29;20308;-78
2023/05/08 08:17:47;;;;;;;25.77;22.88;;;24.40;99.90;;;;;;4927458;29;20229;-78
2023/05/08 08:20:14;;;;;;;24.20;21.58;;;23.90;99.90;;;;;;4892566;29;20308;-78
2023/05/08 08:22:41;;;;;;;33.10;22.13;;;23.70;99.90;;;;;;4917899;29;20238;-77
2023/05/08 08:25:08;;;;;;;36.95;23.40;;;23.60;99.90;;;;;;4920432;29;20293;-77
2023/05/08 08:27:35;;;;;;;42.22;22.17;;;23.50;99.90;;;;;;4921046;29;20322;-77
2023/05/08 08:30:02;;;;;;;30.67;22.13;;;23.50;99.90;;;;;;4920266;29;20218;-78
2023/05/08 08:32:43;;;;;;;46.33;23.42;;;23.40;99.90;;;;;;4920738;29;20654;-76
2023/05/08 08:35:10;;;;;;;50.38;24.73;;;23.50;99.90;;;;;;4923292;29;20228;-76
2023/05/08 08:37:37;;;;;;;31.40;22.83;;;23.60;99.90;;;;;;4920890;29;20202;-77
2023/05/08 08:40:05;;;;;;;28.92;23.77;;;23.90;99.90;;;;;;4920549;29;20678;-77
2023/05/08 08:42:32;;;;;;;35.70;22.17;;;24.10;99.90;;;;;;4922366;29;20657;-77
2023/05/08 08:45:00;;;;;;;27.95;22.67;;;24.30;99.90;;;;;;4922780;29;20220;-77
2023/05/08 08:47:28;;;;;;;27.80;22.15;;;24.60;99.90;;;;;;4922397;29;20236;-77
2023/05/08 08:50:00;;;;;;;31.90;23.52;;;24.90;99.90;;;;;;4918100;29;20261;-77
2023/05/08 08:52:35;;;;;;;30.50;24.50;;;24.90;99.90;;;;;;4919102;29;20647;-78
2023/05/08 08:55:06;;;;;;;37.05;24.42;;;24.60;99.90;;;;;;4924405;29;20202;-77
2023/05/08 08:57:37;;;;;;;38.20;24.95;;;24.30;99.90;;;;;;4925578;29;20245;-78
2023/05/08 09:00:08;;;;;;;51.85;26.05;;;23.90;99.90;;;;;;4919857;29;20250;-78
2023/05/08 09:02:35;;;;;;;41.92;27.33;;;23.40;99.90;;;;;;4919604;29;20591;-77
2023/05/08 09:05:02;;;;;;;38.53;27.50;;;23.10;99.90;;;;;;4919066;29;20206;-77
2023/05/08 09:07:29;;;;;;;43.13;24.90;;;23.00;99.90;;;;;;4922923;29;20216;-77
2023/05/08 09:09:56;;;;;;;44.22;26.17;;;23.20;99.90;;;;;;4919920;29;20569;-77
2023/05/08 09:12:23;;;;;;;38.42;24.90;;;23.50;99.90;;;;;;4923179;29;20205;-78
2023/05/08 09:14:50;;;;;;;42.13;23.83;;;23.60;99.90;;;;;;4920234;29;20217;-77
2023/05/08 09:17:17;;;;;;;65.20;26.23;;;23.70;99.90;;;;;;4922595;29;20209;-77
2023/05/08 09:19:44;;;;;;;37.10;24.63;;;23.60;99.90;;;;;;4922944;29;20297;-78
2023/05/08 09:22:11;;;;;;;38.92;24.23;;;23.50;99.90;;;;;;4923041;29;20252;-79
2023/05/08 09:24:58;;;;;;;41.75;23.55;;;23.50;99.90;;;;;;4920688;29;20250;-77
2023/05/08 09:27:28;;;;;;;37.10;23.88;;;23.40;99.90;;;;;;4919453;29;20679;-76
2023/05/08 09:30:02;;;;;;;40.38;25.05;;;23.20;99.90;;;;;;4919906;29;20253;-78
2023/05/08 09:32:31;;;;;;;34.42;22.33;;;23.10;99.90;;;;;;4918499;29;20669;-78
2023/05/08 09:34:58;;;;;;;38.05;22.98;;;23.20;99.90;;;;;;4918726;29;20263;-77
2023/05/08 09:37:26;;;;;;;38.75;24.58;;;23.20;99.90;;;;;;4919572;29;20701;-77
2023/05/08 09:39:53;;;;;;;43.25;23.83;;;23.40;99.90;;;;;;4915236;29;20913;-78
2023/05/08 09:42:22;;;;;;;37.90;24.40;;;23.50;99.90;;;;;;4912915;29;20258;-77
2023/05/08 09:44:50;;;;;;;38.28;22.25;;;23.50;99.90;;;;;;4910869;29;20244;-76
2023/05/08 09:47:20;;;;;;;38.63;25.25;;;23.60;99.90;;;;;;4908129;29;20622;-78
2023/05/08 09:50:07;;;;;;;37.17;22.98;;;23.70;99.90;;;;;;4913803;29;20305;-76
2023/05/08 09:52:36;;;;;;;35.85;24.00;;;24.00;99.90;;;;;;4912708;29;20689;-77
2023/05/08 09:55:10;;;;;;;36.95;23.58;;;24.10;99.90;;;;;;4914240;29;20220;-77
2023/05/08 09:57:39;;;;;;;39.67;25.27;;;24.20;99.90;;;;;;4909903;29;20292;-76
2023/05/08 10:00:08;;;;;;;49.40;26.30;;;24.10;99.90;;;;;;4913861;29;20805;-76
2023/05/08 10:02:37;;;;;;;39.75;25.23;;;24.00;99.90;;;;;;4913588;29;20229;-77
2023/05/08 10:05:22;;;;;;;41.17;26.45;;;23.90;99.90;;;;;;4913613;29;20206;-75
2023/05/08 10:07:49;;;;;;;42.47;26.42;;;23.90;99.90;;;;;;4914440;29;20209;-76
2023/05/08 10:10:30;;;;;;;39.30;27.20;;;23.90;99.90;;;;;;4915451;29;20210;-76
2023/05/08 10:12:58;;;;;;;39.67;26.95;;;23.80;99.90;;;;;;4915325;29;20460;-77
2023/05/08 10:15:28;;;;;;;56.72;28.13;;;23.80;99.90;;;;;;4914229;29;20281;-76
2023/05/08 10:18:06;;;;;;;41.08;24.38;;;23.90;99.90;;;;;;4915168;28;20665;-77
2023/05/08 10:20:41;;;;;;;43.50;26.48;;;23.90;99.90;;;;;;4910934;29;20205;-78
2023/05/08 10:23:13;;;;;;;40.25;24.88;;;24.00;99.90;;;;;;4904999;29;20238;-77
2023/05/08 10:25:45;;;;;;;42.08;25.80;;;24.00;99.90;;;;;;4908544;29;20210;-78
2023/05/08 10:28:35;;;;;;;43.85;27.20;;;24.30;99.90;;;;;;4919629;29;20571;-77
2023/05/08 10:31:04;;;;;;;43.45;26.25;;;24.60;99.90;;;;;;4914936;29;20615;-78
2023/05/08 10:33:33;;;;;;;39.55;26.42;;;24.90;99.90;;;;;;4919785;29;20213;-77
2023/05/08 10:36:00;;;;;;;45.60;28.08;;;25.00;99.90;;;;;;4919969;29;20714;-78
2023/05/08 10:38:29;;;;;;;41.40;28.00;;;25.10;99.90;;;;;;4915640;29;20265;-78
2023/05/08 10:41:00;;;;;;;41.08;27.20;;;25.30;99.90;;;;;;4914173;29;20198;-76
2023/05/08 10:43:28;;;;;;;38.80;25.70;;;25.20;99.90;;;;;;4914259;29;20232;-77
2023/05/08 10:45:56;;;;;;;38.15;26.45;;;24.90;99.90;;;;;;4916717;29;20218;-79
2023/05/08 10:48:31;;;;;;;42.55;28.17;;;24.70;99.90;;;;;;4918610;29;20213;-77
2023/05/08 10:51:16;;;;;;;40.97;28.33;;;24.40;99.90;;;;;;4911068;29;20214;-78
2023/05/08 10:53:54;;;;;;;42.70;28.33;;;24.20;99.90;;;;;;4906191;29;20293;-78
2023/05/08 10:56:27;;;;;;;43.88;29.20;;;23.80;99.90;;;;;;4908633;29;20553;-78
2023/05/08 10:58:56;;;;;;;46.53;29.50;;;23.60;99.90;;;;;;4912082;29;20269;-77
2023/05/08 11:01:26;;;;;;;47.13;27.35;;;23.40;99.90;;;;;;4906486;29;20611;-77
2023/05/08 11:03:54;;;;;;;44.60;29.08;;;23.20;99.90;;;;;;4896663;29;20202;-77
2023/05/08 11:06:51;;;;;;;46.42;30.48;;;23.00;99.90;;;;;;4892977;29;20205;-78
2023/05/08 11:09:29;;;;;;;49.25;32.05;;;22.90;99.90;;;;;;4911350;29;20293;-77
2023/05/08 11:12:21;;;;;;;48.45;30.48;;;22.80;99.90;;;;;;4910635;29;20245;-78
2023/05/08 11:15:05;;;;;;;42.40;27.83;;;22.70;99.90;;;;;;4910405;29;20280;-77
2023/05/08 11:17:32;;;;;;;47.28;27.33;;;22.60;99.90;;;;;;4909211;29;20728;-77
2023/05/08 11:20:02;;;;;;;47.75;29.40;;;22.50;99.90;;;;;;4911042;29;20285;-78
2023/05/08 11:22:31;;;;;;;53.47;31.40;;;22.40;99.90;;;;;;4911829;29;20221;-77
2023/05/08 11:25:01;;;;;;;50.10;31.05;;;22.30;99.90;;;;;;4913888;29;20221;-77
2023/05/08 11:27:45;;;;;;;55.35;31.55;;;22.00;99.90;;;;;;4911427;29;20213;-79
2023/05/08 11:30:24;;;;;;;55.53;32.83;;;21.60;99.90;;;;;;4912696;29;20257;-77
2023/05/08 11:33:03;;;;;;;51.97;27.30;;;21.30;99.90;;;;;;4915495;29;20927;-77
2023/05/08 11:35:47;;;;;;;57.17;32.20;;;21.00;99.90;;;;;;4913601;29;20261;-77
2023/05/08 11:38:34;;;;;;;59.50;33.40;;;20.80;99.90;;;;;;4905159;29;20206;-77
2023/05/08 11:41:09;;;;;;;61.05;33.53;;;20.60;99.90;;;;;;4912618;29;20707;-77
2023/05/08 11:44:13;;;;;;;66.85;34.47;;;20.30;99.90;;;;;;4913090;29;20230;-78
2023/05/08 11:46:51;;;;;;;51.83;29.05;;;20.20;99.90;;;;;;4911057;29;20205;-77
2023/05/08 11:49:21;;;;;;;75.53;38.60;;;20.00;99.90;;;;;;4911401;29;20246;-77
2023/05/08 11:51:54;;;;;;;79.90;39.67;;;19.90;99.90;;;;;;4913002;29;20229;-76
2023/05/08 11:54:21;;;;;;;84.28;40.83;;;19.80;99.90;;;;;;4913114;29;20209;-77
2023/05/08 11:56:49;;;;;;;84.05;40.22;;;19.70;99.90;;;;;;4915067;29;20221;-77
2023/05/08 11:59:17;;;;;;;92.53;42.40;;;19.60;99.90;;;;;;4913876;29;20274;-77
2023/05/08 12:01:46;;;;;;;89.68;42.35;;;19.60;99.90;;;;;;4909788;29;20206;-78
2023/05/08 12:04:45;;;;;;;92.72;41.70;;;19.50;99.90;;;;;;4914043;29;20217;-77
2023/05/08 12:07:12;;;;;;;91.25;43.25;;;19.50;99.90;;;;;;4912367;29;21151;-77
2023/05/08 12:09:39;;;;;;;75.90;39.38;;;19.50;99.90;;;;;;4905841;29;20297;-76
2023/05/08 12:12:06;;;;;;;82.95;40.55;;;19.60;99.90;;;;;;4913278;29;20657;-77
2023/05/08 12:14:33;;;;;;;79.95;39.17;;;19.60;99.90;;;;;;4916271;29;20217;-77
2023/05/08 12:17:01;;;;;;;79.88;39.33;;;19.70;99.90;;;;;;4911590;29;20451;-76
2023/05/08 12:19:28;;;;;;;76.10;36.42;;;19.80;99.90;;;;;;4910465;29;20230;-77
2023/05/08 12:21:56;;;;;;;69.72;35.83;;;19.90;99.90;;;;;;4914300;29;20292;-76
2023/05/08 12:24:24;;;;;;;73.78;37.20;;;20.00;99.90;;;;;;4916085;29;20298;-76
2023/05/08 12:26:55;;;;;;;70.97;35.95;;;20.00;99.90;;;;;;4914134;29;20210;-75
2023/05/08 12:29:22;;;;;;;62.10;35.05;;;20.20;99.90;;;;;;4910531;29;20973;-76
2023/05/08 12:31:51;;;;;;;50.42;31.60;;;20.30;99.90;;;;;;4916244;29;20208;-76
2023/05/08 12:34:19;;;;;;;57.38;34.25;;;20.50;99.90;;;;;;4913028;29;20239;-74
2023/05/08 12:36:46;;;;;;;56.42;31.92;;;20.50;99.90;;;;;;4915955;29;20205;-75
2023/05/08 12:39:17;;;;;;;54.38;31.73;;;20.60;99.90;;;;;;4920106;29;20204;-76
2023/05/08 12:41:48;;;;;;;56.13;33.53;;;20.60;99.90;;;;;;4916698;29;20571;-75
2023/05/08 12:44:23;;;;;;;57.50;33.22;;;20.60;99.90;;;;;;4909689;29;20371;-76